sensor_id;sensor_type;location;lat;lon;timestamp;P1;durP1;ratioP1;P2;durP2;ratioP2
49384;SDS011;36795;45.028;38.968;2023-04-15T00:00:37;7.45;;;2.42;;
49384;SDS011;36795;45.028;38.968;2023-04-15T00:03:23;9.32;;;2.53;;
49384;SDS011;36795;45.028;38.968;2023-04-15T00:06:09;8.90;;;2.25;;
49384;SDS011;36795;45.028;38.968;2023-04-15T00:08:56;10.40;;;2.58;;
49384;SDS011;36795;45.028;38.968;2023-04-15T00:11:42;6.97;;;2.40;;
49384;SDS011;36795;45.028;38.968;2023-04-15T00:14:28;11.85;;;2.95;;
49384;SDS011;36795;45.028;38.968;2023-04-15T00:17:14;9.68;;;2.72;;
49384;SDS011;36795;45.028;38.968;2023-04-15T00:20:01;10.85;;;2.75;;
49384;SDS011;36795;45.028;38.968;2023-04-15T00:22:50;11.02;;;2.62;;
49384;SDS011;36795;45.028;38.968;2023-04-15T00:25:36;12.00;;;2.80;;
49384;SDS011;36795;45.028;38.968;2023-04-15T00:28:23;8.50;;;2.22;;
49384;SDS011;36795;45.028;38.968;2023-04-15T00:31:09;8.88;;;2.62;;
49384;SDS011;36795;45.028;38.968;2023-04-15T00:33:55;9.73;;;2.50;;
49384;SDS011;36795;45.028;38.968;2023-04-15T00:36:42;9.38;;;2.53;;
49384;SDS011;36795;45.028;38.968;2023-04-15T00:39:28;12.32;;;2.72;;
49384;SDS011;36795;45.028;38.968;2023-04-15T00:42:15;8.32;;;2.53;;
49384;SDS011;36795;45.028;38.968;2023-04-15T00:45:02;9.15;;;2.70;;
49384;SDS011;36795;45.028;38.968;2023-04-15T00:47:48;12.15;;;2.58;;
49384;SDS011;36795;45.028;38.968;2023-04-15T00:50:34;9.98;;;2.50;;
49384;SDS011;36795;45.028;38.968;2023-04-15T00:53:20;9.43;;;2.50;;
49384;SDS011;36795;45.028;38.968;2023-04-15T00:56:06;10.73;;;2.60;;
49384;SDS011;36795;45.028;38.968;2023-04-15T00:58:53;10.25;;;2.75;;
49384;SDS011;36795;45.028;38.968;2023-04-15T01:01:39;8.77;;;2.70;;
49384;SDS011;36795;45.028;38.968;2023-04-15T01:04:26;8.82;;;2.67;;
49384;SDS011;36795;45.028;38.968;2023-04-15T01:07:12;10.38;;;2.72;;
49384;SDS011;36795;45.028;38.968;2023-04-15T01:09:59;7.30;;;2.47;;
49384;SDS011;36795;45.028;38.968;2023-04-15T01:12:45;7.12;;;2.45;;
49384;SDS011;36795;45.028;38.968;2023-04-15T01:15:33;9.77;;;2.60;;
49384;SDS011;36795;45.028;38.968;2023-04-15T01:18:20;13.38;;;3.08;;
49384;SDS011;36795;45.028;38.968;2023-04-15T01:21:07;10.65;;;2.87;;
49384;SDS011;36795;45.028;38.968;2023-04-15T01:23:53;11.23;;;3.12;;
49384;SDS011;36795;45.028;38.968;2023-04-15T01:26:41;10.60;;;2.78;;
49384;SDS011;36795;45.028;38.968;2023-04-15T01:29:27;10.07;;;2.65;;
49384;SDS011;36795;45.028;38.968;2023-04-15T01:32:14;6.70;;;2.12;;
49384;SDS011;36795;45.028;38.968;2023-04-15T01:35:21;8.50;;;2.30;;
49384;SDS011;36795;45.028;38.968;2023-04-15T01:38:11;7.65;;;2.53;;
49384;SDS011;36795;45.028;38.968;2023-04-15T01:40:57;10.30;;;2.60;;
49384;SDS011;36795;45.028;38.968;2023-04-15T01:43:45;10.50;;;2.60;;
49384;SDS011;36795;45.028;38.968;2023-04-15T01:46:32;9.70;;;2.53;;
49384;SDS011;36795;45.028;38.968;2023-04-15T01:49:20;11.35;;;2.65;;
49384;SDS011;36795;45.028;38.968;2023-04-15T01:52:07;9.63;;;2.72;;
49384;SDS011;36795;45.028;38.968;2023-04-15T01:54:55;10.05;;;2.62;;
49384;SDS011;36795;45.028;38.968;2023-04-15T01:57:42;8.88;;;2.50;;
49384;SDS011;36795;45.028;38.968;2023-04-15T02:00:30;8.63;;;2.45;;
49384;SDS011;36795;45.028;38.968;2023-04-15T02:03:18;10.57;;;2.58;;
49384;SDS011;36795;45.028;38.968;2023-04-15T02:06:06;10.85;;;2.70;;
49384;SDS011;36795;45.028;38.968;2023-04-15T02:08:53;8.52;;;2.30;;
49384;SDS011;36795;45.028;38.968;2023-04-15T02:11:41;11.05;;;2.62;;
49384;SDS011;36795;45.028;38.968;2023-04-15T02:14:28;8.43;;;2.60;;
49384;SDS011;36795;45.028;38.968;2023-04-15T02:17:17;8.15;;;2.30;;
49384;SDS011;36795;45.028;38.968;2023-04-15T02:20:04;10.73;;;2.70;;
49384;SDS011;36795;45.028;38.968;2023-04-15T02:22:52;8.13;;;2.53;;
49384;SDS011;36795;45.028;38.968;2023-04-15T02:25:39;6.22;;;1.80;;
49384;SDS011;36795;45.028;38.968;2023-04-15T02:28:27;9.45;;;2.67;;
49384;SDS011;36795;45.028;38.968;2023-04-15T02:31:15;13.57;;;2.70;;
49384;SDS011;36795;45.028;38.968;2023-04-15T02:34:02;6.00;;;2.35;;
49384;SDS011;36795;45.028;38.968;2023-04-15T02:36:50;8.80;;;2.58;;
49384;SDS011;36795;45.028;38.968;2023-04-15T02:39:41;8.80;;;2.78;;
49384;SDS011;36795;45.028;38.968;2023-04-15T02:42:29;11.38;;;3.20;;
49384;SDS011;36795;45.028;38.968;2023-04-15T02:45:18;14.20;;;3.62;;
49384;SDS011;36795;45.028;38.968;2023-04-15T02:48:09;6.35;;;2.20;;
49384;SDS011;36795;45.028;38.968;2023-04-15T02:51:10;8.77;;;2.40;;
49384;SDS011;36795;45.028;38.968;2023-04-15T02:53:58;10.35;;;2.60;;
49384;SDS011;36795;45.028;38.968;2023-04-15T02:56:45;7.72;;;2.20;;
49384;SDS011;36795;45.028;38.968;2023-04-15T02:59:33;6.30;;;2.37;;
49384;SDS011;36795;45.028;38.968;2023-04-15T03:02:21;7.75;;;2.22;;
49384;SDS011;36795;45.028;38.968;2023-04-15T03:05:12;15.48;;;3.05;;
49384;SDS011;36795;45.028;38.968;2023-04-15T03:08:01;10.75;;;3.12;;
49384;SDS011;36795;45.028;38.968;2023-04-15T03:10:49;12.32;;;2.85;;
49384;SDS011;36795;45.028;38.968;2023-04-15T03:13:38;7.78;;;2.33;;
49384;SDS011;36795;45.028;38.968;2023-04-15T03:16:27;8.25;;;2.17;;
49384;SDS011;36795;45.028;38.968;2023-04-15T03:19:17;13.90;;;3.42;;
49384;SDS011;36795;45.028;38.968;2023-04-15T03:22:04;13.25;;;2.90;;
49384;SDS011;36795;45.028;38.968;2023-04-15T03:24:51;9.50;;;2.45;;
49384;SDS011;36795;45.028;38.968;2023-04-15T03:27:39;8.90;;;2.37;;
49384;SDS011;36795;45.028;38.968;2023-04-15T03:30:28;11.55;;;2.62;;
49384;SDS011;36795;45.028;38.968;2023-04-15T03:33:15;9.68;;;2.72;;
49384;SDS011;36795;45.028;38.968;2023-04-15T03:36:03;10.98;;;2.92;;
49384;SDS011;36795;45.028;38.968;2023-04-15T03:38:50;9.48;;;2.80;;
49384;SDS011;36795;45.028;38.968;2023-04-15T03:41:38;12.23;;;2.97;;
49384;SDS011;36795;45.028;38.968;2023-04-15T03:44:26;11.82;;;2.85;;
49384;SDS011;36795;45.028;38.968;2023-04-15T03:47:14;12.82;;;3.08;;
49384;SDS011;36795;45.028;38.968;2023-04-15T03:50:01;10.80;;;2.87;;
49384;SDS011;36795;45.028;38.968;2023-04-15T03:52:49;8.73;;;2.67;;
49384;SDS011;36795;45.028;38.968;2023-04-15T03:55:36;16.58;;;3.25;;
49384;SDS011;36795;45.028;38.968;2023-04-15T03:58:23;12.00;;;2.60;;
49384;SDS011;36795;45.028;38.968;2023-04-15T04:01:10;15.20;;;3.55;;
49384;SDS011;36795;45.028;38.968;2023-04-15T04:03:58;15.38;;;3.00;;
49384;SDS011;36795;45.028;38.968;2023-04-15T04:06:46;14.60;;;3.50;;
49384;SDS011;36795;45.028;38.968;2023-04-15T04:09:33;15.73;;;3.90;;
49384;SDS011;36795;45.028;38.968;2023-04-15T04:12:21;16.58;;;3.60;;
49384;SDS011;36795;45.028;38.968;2023-04-15T04:15:08;24.08;;;6.47;;
49384;SDS011;36795;45.028;38.968;2023-04-15T04:17:56;26.12;;;4.85;;
49384;SDS011;36795;45.028;38.968;2023-04-15T04:20:44;15.35;;;3.47;;
49384;SDS011;36795;45.028;38.968;2023-04-15T04:23:31;13.07;;;3.42;;
49384;SDS011;36795;45.028;38.968;2023-04-15T04:26:19;10.38;;;3.00;;
49384;SDS011;36795;45.028;38.968;2023-04-15T04:29:06;12.30;;;2.95;;
49384;SDS011;36795;45.028;38.968;2023-04-15T04:31:54;13.13;;;3.33;;
49384;SDS011;36795;45.028;38.968;2023-04-15T04:34:41;12.50;;;2.83;;
49384;SDS011;36795;45.028;38.968;2023-04-15T04:37:29;10.52;;;2.90;;
49384;SDS011;36795;45.028;38.968;2023-04-15T04:40:16;15.50;;;3.67;;
49384;SDS011;36795;45.028;38.968;2023-04-15T04:43:04;12.68;;;3.65;;
49384;SDS011;36795;45.028;38.968;2023-04-15T04:45:51;15.30;;;3.75;;
49384;SDS011;36795;45.028;38.968;2023-04-15T04:48:39;18.75;;;4.32;;
49384;SDS011;36795;45.028;38.968;2023-04-15T04:51:26;12.77;;;3.67;;
49384;SDS011;36795;45.028;38.968;2023-04-15T04:54:14;9.82;;;3.15;;
49384;SDS011;36795;45.028;38.968;2023-04-15T04:57:01;15.85;;;4.40;;
49384;SDS011;36795;45.028;38.968;2023-04-15T04:59:49;20.42;;;4.20;;
49384;SDS011;36795;45.028;38.968;2023-04-15T05:02:37;12.70;;;2.92;;
49384;SDS011;36795;45.028;38.968;2023-04-15T05:05:24;15.85;;;3.80;;
49384;SDS011;36795;45.028;38.968;2023-04-15T05:08:12;12.13;;;3.60;;
49384;SDS011;36795;45.028;38.968;2023-04-15T05:10:59;15.15;;;3.22;;
49384;SDS011;36795;45.028;38.968;2023-04-15T05:13:47;18.75;;;4.07;;
49384;SDS011;36795;45.028;38.968;2023-04-15T05:16:35;17.83;;;3.70;;
49384;SDS011;36795;45.028;38.968;2023-04-15T05:19:22;18.95;;;4.28;;
49384;SDS011;36795;45.028;38.968;2023-04-15T05:22:10;19.85;;;4.55;;
49384;SDS011;36795;45.028;38.968;2023-04-15T05:24:57;18.42;;;4.53;;
49384;SDS011;36795;45.028;38.968;2023-04-15T05:27:45;18.83;;;4.80;;
49384;SDS011;36795;45.028;38.968;2023-04-15T05:30:32;18.60;;;4.55;;
49384;SDS011;36795;45.028;38.968;2023-04-15T05:33:20;14.20;;;4.00;;
49384;SDS011;36795;45.028;38.968;2023-04-15T05:36:08;23.73;;;4.50;;
49384;SDS011;36795;45.028;38.968;2023-04-15T05:38:56;25.02;;;4.40;;
49384;SDS011;36795;45.028;38.968;2023-04-15T05:41:43;18.85;;;4.00;;
49384;SDS011;36795;45.028;38.968;2023-04-15T05:44:31;20.33;;;4.25;;
49384;SDS011;36795;45.028;38.968;2023-04-15T05:47:18;21.95;;;3.95;;
49384;SDS011;36795;45.028;38.968;2023-04-15T05:50:06;21.77;;;3.85;;
49384;SDS011;36795;45.028;38.968;2023-04-15T05:52:54;19.90;;;3.53;;
49384;SDS011;36795;45.028;38.968;2023-04-15T05:55:42;17.42;;;4.00;;
49384;SDS011;36795;45.028;38.968;2023-04-15T05:58:29;16.98;;;3.65;;
49384;SDS011;36795;45.028;38.968;2023-04-15T06:01:17;19.62;;;4.28;;
49384;SDS011;36795;45.028;38.968;2023-04-15T06:04:05;13.43;;;3.00;;
49384;SDS011;36795;45.028;38.968;2023-04-15T06:06:52;18.00;;;3.40;;
49384;SDS011;36795;45.028;38.968;2023-04-15T06:09:40;14.55;;;3.70;;
49384;SDS011;36795;45.028;38.968;2023-04-15T06:12:27;14.90;;;4.07;;
49384;SDS011;36795;45.028;38.968;2023-04-15T06:15:15;19.85;;;4.22;;
49384;SDS011;36795;45.028;38.968;2023-04-15T06:18:02;17.08;;;3.83;;
49384;SDS011;36795;45.028;38.968;2023-04-15T06:20:50;17.52;;;3.42;;
49384;SDS011;36795;45.028;38.968;2023-04-15T06:23:38;16.60;;;3.60;;
49384;SDS011;36795;45.028;38.968;2023-04-15T06:26:26;15.68;;;3.50;;
49384;SDS011;36795;45.028;38.968;2023-04-15T06:29:14;18.42;;;3.87;;
49384;SDS011;36795;45.028;38.968;2023-04-15T06:32:01;15.75;;;3.58;;
49384;SDS011;36795;45.028;38.968;2023-04-15T06:34:49;19.02;;;4.47;;
49384;SDS011;36795;45.028;38.968;2023-04-15T06:37:36;16.67;;;4.30;;
49384;SDS011;36795;45.028;38.968;2023-04-15T06:40:24;11.93;;;3.00;;
49384;SDS011;36795;45.028;38.968;2023-04-15T06:43:12;12.73;;;2.97;;
49384;SDS011;36795;45.028;38.968;2023-04-15T06:46:00;10.82;;;2.97;;
49384;SDS011;36795;45.028;38.968;2023-04-15T06:48:48;27.85;;;4.40;;
49384;SDS011;36795;45.028;38.968;2023-04-15T06:51:35;14.95;;;3.47;;
49384;SDS011;36795;45.028;38.968;2023-04-15T06:54:23;13.32;;;3.15;;
49384;SDS011;36795;45.028;38.968;2023-04-15T06:57:10;14.32;;;3.28;;
49384;SDS011;36795;45.028;38.968;2023-04-15T06:59:58;15.18;;;3.10;;
49384;SDS011;36795;45.028;38.968;2023-04-15T07:02:46;15.90;;;3.60;;
49384;SDS011;36795;45.028;38.968;2023-04-15T07:05:34;9.65;;;3.10;;
49384;SDS011;36795;45.028;38.968;2023-04-15T07:08:21;10.77;;;2.72;;
49384;SDS011;36795;45.028;38.968;2023-04-15T07:11:09;14.45;;;3.83;;
49384;SDS011;36795;45.028;38.968;2023-04-15T07:13:57;12.57;;;3.28;;
49384;SDS011;36795;45.028;38.968;2023-04-15T07:16:45;17.12;;;3.70;;
49384;SDS011;36795;45.028;38.968;2023-04-15T07:19:32;14.13;;;3.53;;
49384;SDS011;36795;45.028;38.968;2023-04-15T07:22:20;12.05;;;3.30;;
49384;SDS011;36795;45.028;38.968;2023-04-15T07:25:07;10.52;;;2.70;;
49384;SDS011;36795;45.028;38.968;2023-04-15T07:27:55;10.32;;;2.80;;
49384;SDS011;36795;45.028;38.968;2023-04-15T07:30:42;10.77;;;2.75;;
49384;SDS011;36795;45.028;38.968;2023-04-15T07:33:30;13.55;;;3.42;;
49384;SDS011;36795;45.028;38.968;2023-04-15T07:36:17;13.77;;;3.12;;
49384;SDS011;36795;45.028;38.968;2023-04-15T07:39:05;15.95;;;3.30;;
49384;SDS011;36795;45.028;38.968;2023-04-15T07:41:52;14.75;;;3.20;;
49384;SDS011;36795;45.028;38.968;2023-04-15T07:44:40;14.60;;;3.42;;
49384;SDS011;36795;45.028;38.968;2023-04-15T07:47:27;11.65;;;2.70;;
49384;SDS011;36795;45.028;38.968;2023-04-15T07:50:15;14.70;;;3.22;;
49384;SDS011;36795;45.028;38.968;2023-04-15T07:53:02;14.23;;;3.45;;
49384;SDS011;36795;45.028;38.968;2023-04-15T07:55:51;11.63;;;3.37;;
49384;SDS011;36795;45.028;38.968;2023-04-15T07:58:38;12.32;;;3.47;;
49384;SDS011;36795;45.028;38.968;2023-04-15T08:01:26;12.60;;;3.08;;
49384;SDS011;36795;45.028;38.968;2023-04-15T08:04:13;17.25;;;3.67;;
49384;SDS011;36795;45.028;38.968;2023-04-15T08:07:01;12.40;;;3.35;;
49384;SDS011;36795;45.028;38.968;2023-04-15T08:09:49;10.40;;;3.30;;
49384;SDS011;36795;45.028;38.968;2023-04-15T08:12:37;12.20;;;3.17;;
49384;SDS011;36795;45.028;38.968;2023-04-15T08:15:25;12.52;;;3.30;;
49384;SDS011;36795;45.028;38.968;2023-04-15T08:18:13;14.18;;;3.20;;
49384;SDS011;36795;45.028;38.968;2023-04-15T08:21:01;14.68;;;3.42;;
49384;SDS011;36795;45.028;38.968;2023-04-15T08:23:49;11.55;;;2.85;;
49384;SDS011;36795;45.028;38.968;2023-04-15T08:26:37;17.30;;;4.10;;
49384;SDS011;36795;45.028;38.968;2023-04-15T08:29:24;13.62;;;3.20;;
49384;SDS011;36795;45.028;38.968;2023-04-15T08:32:13;15.50;;;3.12;;
49384;SDS011;36795;45.028;38.968;2023-04-15T08:35:00;20.20;;;4.20;;
49384;SDS011;36795;45.028;38.968;2023-04-15T08:37:48;19.70;;;5.05;;
49384;SDS011;36795;45.028;38.968;2023-04-15T08:40:43;17.05;;;4.10;;
49384;SDS011;36795;45.028;38.968;2023-04-15T08:43:34;15.88;;;3.45;;
49384;SDS011;36795;45.028;38.968;2023-04-15T08:46:26;20.58;;;4.57;;
49384;SDS011;36795;45.028;38.968;2023-04-15T08:49:14;13.90;;;3.60;;
49384;SDS011;36795;45.028;38.968;2023-04-15T08:52:01;14.93;;;3.78;;
49384;SDS011;36795;45.028;38.968;2023-04-15T08:54:49;14.77;;;3.50;;
49384;SDS011;36795;45.028;38.968;2023-04-15T08:57:37;12.43;;;3.42;;
49384;SDS011;36795;45.028;38.968;2023-04-15T09:00:25;23.42;;;5.40;;
49384;SDS011;36795;45.028;38.968;2023-04-15T09:03:14;12.00;;;3.40;;
49384;SDS011;36795;45.028;38.968;2023-04-15T09:06:06;14.43;;;3.28;;
49384;SDS011;36795;45.028;38.968;2023-04-15T09:08:54;16.55;;;3.53;;
49384;SDS011;36795;45.028;38.968;2023-04-15T09:11:42;13.20;;;3.42;;
49384;SDS011;36795;45.028;38.968;2023-04-15T09:14:30;14.70;;;3.75;;
49384;SDS011;36795;45.028;38.968;2023-04-15T09:17:19;13.32;;;3.55;;
49384;SDS011;36795;45.028;38.968;2023-04-15T09:20:10;15.27;;;3.78;;
49384;SDS011;36795;45.028;38.968;2023-04-15T09:22:59;15.40;;;3.47;;
49384;SDS011;36795;45.028;38.968;2023-04-15T09:25:46;17.10;;;3.92;;
49384;SDS011;36795;45.028;38.968;2023-04-15T09:28:41;14.63;;;4.37;;
49384;SDS011;36795;45.028;38.968;2023-04-15T09:31:28;12.77;;;3.62;;
49384;SDS011;36795;45.028;38.968;2023-04-15T09:34:17;15.82;;;3.97;;
49384;SDS011;36795;45.028;38.968;2023-04-15T09:37:04;14.10;;;3.70;;
49384;SDS011;36795;45.028;38.968;2023-04-15T09:39:53;13.82;;;3.95;;
49384;SDS011;36795;45.028;38.968;2023-04-15T09:42:56;16.25;;;3.95;;
49384;SDS011;36795;45.028;38.968;2023-04-15T09:45:51;13.13;;;4.12;;
49384;SDS011;36795;45.028;38.968;2023-04-15T09:48:39;18.35;;;4.50;;
49384;SDS011;36795;45.028;38.968;2023-04-15T09:51:35;17.65;;;4.90;;
49384;SDS011;36795;45.028;38.968;2023-04-15T09:54:23;17.73;;;4.60;;
49384;SDS011;36795;45.028;38.968;2023-04-15T09:57:11;17.75;;;4.37;;
49384;SDS011;36795;45.028;38.968;2023-04-15T09:59:58;17.30;;;4.30;;
49384;SDS011;36795;45.028;38.968;2023-04-15T10:02:46;16.70;;;4.28;;
49384;SDS011;36795;45.028;38.968;2023-04-15T10:05:35;19.17;;;4.97;;
49384;SDS011;36795;45.028;38.968;2023-04-15T10:08:24;16.98;;;4.47;;
49384;SDS011;36795;45.028;38.968;2023-04-15T10:11:12;17.70;;;4.40;;
49384;SDS011;36795;45.028;38.968;2023-04-15T10:14:00;17.50;;;4.37;;
49384;SDS011;36795;45.028;38.968;2023-04-15T10:16:48;13.15;;;4.32;;
49384;SDS011;36795;45.028;38.968;2023-04-15T10:19:36;20.08;;;4.97;;
49384;SDS011;36795;45.028;38.968;2023-04-15T10:22:24;18.67;;;4.60;;
49384;SDS011;36795;45.028;38.968;2023-04-15T10:25:13;20.55;;;4.57;;
49384;SDS011;36795;45.028;38.968;2023-04-15T10:28:02;20.92;;;5.25;;
49384;SDS011;36795;45.028;38.968;2023-04-15T10:30:49;16.37;;;4.43;;
49384;SDS011;36795;45.028;38.968;2023-04-15T10:33:37;26.90;;;5.82;;
49384;SDS011;36795;45.028;38.968;2023-04-15T10:36:25;16.90;;;4.72;;
49384;SDS011;36795;45.028;38.968;2023-04-15T10:42:19;19.17;;;4.68;;
49384;SDS011;36795;45.028;38.968;2023-04-15T10:45:07;17.92;;;4.90;;
49384;SDS011;36795;45.028;38.968;2023-04-15T10:48:08;23.80;;;6.10;;
49384;SDS011;36795;45.028;38.968;2023-04-15T10:50:56;20.25;;;5.60;;
49384;SDS011;36795;45.028;38.968;2023-04-15T10:53:43;18.35;;;4.93;;
49384;SDS011;36795;45.028;38.968;2023-04-15T10:56:31;18.85;;;5.75;;
49384;SDS011;36795;45.028;38.968;2023-04-15T10:59:18;21.37;;;5.75;;
49384;SDS011;36795;45.028;38.968;2023-04-15T11:02:06;17.30;;;4.82;;
49384;SDS011;36795;45.028;38.968;2023-04-15T11:04:54;20.40;;;4.82;;
49384;SDS011;36795;45.028;38.968;2023-04-15T11:07:47;17.27;;;4.90;;
49384;SDS011;36795;45.028;38.968;2023-04-15T11:13:23;18.08;;;5.12;;
49384;SDS011;36795;45.028;38.968;2023-04-15T11:16:12;20.55;;;5.12;;
49384;SDS011;36795;45.028;38.968;2023-04-15T11:18:59;21.20;;;5.28;;
49384;SDS011;36795;45.028;38.968;2023-04-15T11:21:47;14.43;;;4.70;;
49384;SDS011;36795;45.028;38.968;2023-04-15T11:24:35;21.30;;;5.37;;
49384;SDS011;36795;45.028;38.968;2023-04-15T11:27:22;17.85;;;5.32;;
49384;SDS011;36795;45.028;38.968;2023-04-15T11:30:20;22.40;;;6.12;;
49384;SDS011;36795;45.028;38.968;2023-04-15T11:33:09;18.27;;;5.55;;
49384;SDS011;36795;45.028;38.968;2023-04-15T11:36:00;19.55;;;5.80;;
49384;SDS011;36795;45.028;38.968;2023-04-15T11:38:48;21.05;;;5.55;;
49384;SDS011;36795;45.028;38.968;2023-04-15T11:41:37;18.65;;;5.93;;
49384;SDS011;36795;45.028;38.968;2023-04-15T11:44:24;22.52;;;6.43;;
49384;SDS011;36795;45.028;38.968;2023-04-15T11:47:24;24.25;;;6.40;;
49384;SDS011;36795;45.028;38.968;2023-04-15T11:50:19;19.12;;;6.40;;
49384;SDS011;36795;45.028;38.968;2023-04-15T11:53:07;22.92;;;6.10;;
49384;SDS011;36795;45.028;38.968;2023-04-15T11:55:53;23.20;;;6.45;;
49384;SDS011;36795;45.028;38.968;2023-04-15T11:58:40;22.08;;;5.90;;
49384;SDS011;36795;45.028;38.968;2023-04-15T12:01:36;22.33;;;6.45;;
49384;SDS011;36795;45.028;38.968;2023-04-15T12:04:30;25.35;;;7.37;;
49384;SDS011;36795;45.028;38.968;2023-04-15T12:07:16;20.60;;;6.22;;
49384;SDS011;36795;45.028;38.968;2023-04-15T12:10:03;23.75;;;7.03;;
49384;SDS011;36795;45.028;38.968;2023-04-15T12:12:49;25.98;;;7.30;;
49384;SDS011;36795;45.028;38.968;2023-04-15T12:15:38;21.80;;;5.78;;
49384;SDS011;36795;45.028;38.968;2023-04-15T12:18:24;23.98;;;7.60;;
49384;SDS011;36795;45.028;38.968;2023-04-15T12:21:11;23.17;;;9.43;;
49384;SDS011;36795;45.028;38.968;2023-04-15T12:23:56;23.25;;;8.60;;
49384;SDS011;36795;45.028;38.968;2023-04-15T12:26:47;21.80;;;6.75;;
49384;SDS011;36795;45.028;38.968;2023-04-15T12:29:33;22.23;;;7.30;;
49384;SDS011;36795;45.028;38.968;2023-04-15T12:32:21;24.48;;;7.60;;
49384;SDS011;36795;45.028;38.968;2023-04-15T12:35:07;26.17;;;7.03;;
49384;SDS011;36795;45.028;38.968;2023-04-15T12:37:53;24.60;;;7.60;;
49384;SDS011;36795;45.028;38.968;2023-04-15T12:40:39;25.77;;;8.70;;
49384;SDS011;36795;45.028;38.968;2023-04-15T12:43:26;21.70;;;6.97;;
49384;SDS011;36795;45.028;38.968;2023-04-15T12:46:12;21.05;;;7.10;;
49384;SDS011;36795;45.028;38.968;2023-04-15T12:49:00;28.25;;;7.57;;
49384;SDS011;36795;45.028;38.968;2023-04-15T12:51:47;22.23;;;6.35;;
49384;SDS011;36795;45.028;38.968;2023-04-15T12:54:34;21.15;;;6.32;;
49384;SDS011;36795;45.028;38.968;2023-04-15T12:57:21;25.67;;;7.03;;
49384;SDS011;36795;45.028;38.968;2023-04-15T13:00:07;20.35;;;7.37;;
49384;SDS011;36795;45.028;38.968;2023-04-15T13:02:53;20.73;;;6.53;;
49384;SDS011;36795;45.028;38.968;2023-04-15T13:05:40;22.02;;;7.22;;
49384;SDS011;36795;45.028;38.968;2023-04-15T13:08:26;23.58;;;7.20;;
49384;SDS011;36795;45.028;38.968;2023-04-15T13:11:12;21.33;;;6.85;;
49384;SDS011;36795;45.028;38.968;2023-04-15T13:13:59;23.75;;;8.05;;
49384;SDS011;36795;45.028;38.968;2023-04-15T13:16:46;24.55;;;7.03;;
49384;SDS011;36795;45.028;38.968;2023-04-15T13:19:32;24.73;;;7.28;;
49384;SDS011;36795;45.028;38.968;2023-04-15T13:22:20;23.87;;;6.43;;
49384;SDS011;36795;45.028;38.968;2023-04-15T13:25:07;22.55;;;6.37;;
49384;SDS011;36795;45.028;38.968;2023-04-15T13:27:53;21.55;;;6.57;;
49384;SDS011;36795;45.028;38.968;2023-04-15T13:30:41;24.50;;;7.47;;
49384;SDS011;36795;45.028;38.968;2023-04-15T13:33:28;30.25;;;12.25;;
49384;SDS011;36795;45.028;38.968;2023-04-15T13:36:14;18.83;;;6.18;;
49384;SDS011;36795;45.028;38.968;2023-04-15T13:39:01;20.50;;;6.72;;
49384;SDS011;36795;45.028;38.968;2023-04-15T13:41:49;20.50;;;6.57;;
49384;SDS011;36795;45.028;38.968;2023-04-15T13:44:36;22.55;;;6.82;;
49384;SDS011;36795;45.028;38.968;2023-04-15T13:47:22;21.95;;;7.05;;
49384;SDS011;36795;45.028;38.968;2023-04-15T13:50:09;25.45;;;6.65;;
49384;SDS011;36795;45.028;38.968;2023-04-15T13:52:55;22.23;;;6.93;;
49384;SDS011;36795;45.028;38.968;2023-04-15T13:55:42;23.30;;;6.62;;
49384;SDS011;36795;45.028;38.968;2023-04-15T13:58:28;22.40;;;6.10;;
49384;SDS011;36795;45.028;38.968;2023-04-15T14:01:14;26.40;;;7.30;;
49384;SDS011;36795;45.028;38.968;2023-04-15T14:04:01;20.33;;;5.95;;
49384;SDS011;36795;45.028;38.968;2023-04-15T14:06:47;19.70;;;6.40;;
49384;SDS011;36795;45.028;38.968;2023-04-15T14:09:34;21.00;;;6.20;;
49384;SDS011;36795;45.028;38.968;2023-04-15T14:12:20;23.00;;;6.55;;
49384;SDS011;36795;45.028;38.968;2023-04-15T14:15:07;23.15;;;7.05;;
49384;SDS011;36795;45.028;38.968;2023-04-15T14:17:53;18.98;;;6.68;;
49384;SDS011;36795;45.028;38.968;2023-04-15T14:20:40;22.70;;;6.65;;
49384;SDS011;36795;45.028;38.968;2023-04-15T14:23:26;20.50;;;5.87;;
49384;SDS011;36795;45.028;38.968;2023-04-15T14:26:12;21.20;;;6.40;;
49384;SDS011;36795;45.028;38.968;2023-04-15T14:28:58;21.45;;;6.18;;
49384;SDS011;36795;45.028;38.968;2023-04-15T14:31:45;23.25;;;7.50;;
49384;SDS011;36795;45.028;38.968;2023-04-15T14:34:32;20.62;;;7.70;;
49384;SDS011;36795;45.028;38.968;2023-04-15T14:37:19;21.05;;;6.12;;
49384;SDS011;36795;45.028;38.968;2023-04-15T14:40:05;23.67;;;7.03;;
49384;SDS011;36795;45.028;38.968;2023-04-15T14:42:52;19.55;;;6.65;;
49384;SDS011;36795;45.028;38.968;2023-04-15T14:45:38;18.00;;;6.40;;
49384;SDS011;36795;45.028;38.968;2023-04-15T14:48:25;23.27;;;6.82;;
49384;SDS011;36795;45.028;38.968;2023-04-15T14:51:11;21.15;;;6.90;;
49384;SDS011;36795;45.028;38.968;2023-04-15T14:53:58;23.83;;;6.68;;
49384;SDS011;36795;45.028;38.968;2023-04-15T14:56:43;20.73;;;5.75;;
49384;SDS011;36795;45.028;38.968;2023-04-15T14:59:30;20.02;;;6.00;;
49384;SDS011;36795;45.028;38.968;2023-04-15T15:02:16;19.02;;;6.32;;
49384;SDS011;36795;45.028;38.968;2023-04-15T15:05:02;17.80;;;5.85;;
49384;SDS011;36795;45.028;38.968;2023-04-15T15:07:48;18.80;;;5.05;;
49384;SDS011;36795;45.028;38.968;2023-04-15T15:10:35;20.70;;;6.75;;
49384;SDS011;36795;45.028;38.968;2023-04-15T15:13:21;18.45;;;4.97;;
49384;SDS011;36795;45.028;38.968;2023-04-15T15:16:08;20.80;;;6.32;;
49384;SDS011;36795;45.028;38.968;2023-04-15T15:18:54;18.50;;;5.22;;
49384;SDS011;36795;45.028;38.968;2023-04-15T15:21:40;21.25;;;5.40;;
49384;SDS011;36795;45.028;38.968;2023-04-15T15:24:26;17.48;;;4.78;;
49384;SDS011;36795;45.028;38.968;2023-04-15T15:27:13;18.50;;;6.10;;
49384;SDS011;36795;45.028;38.968;2023-04-15T15:29:58;18.58;;;5.40;;
49384;SDS011;36795;45.028;38.968;2023-04-15T15:32:45;17.85;;;5.43;;
49384;SDS011;36795;45.028;38.968;2023-04-15T15:35:31;21.30;;;5.95;;
49384;SDS011;36795;45.028;38.968;2023-04-15T15:38:18;19.15;;;5.20;;
49384;SDS011;36795;45.028;38.968;2023-04-15T15:41:04;20.33;;;5.82;;
49384;SDS011;36795;45.028;38.968;2023-04-15T15:43:51;20.20;;;6.12;;
49384;SDS011;36795;45.028;38.968;2023-04-15T15:46:37;18.77;;;5.60;;
49384;SDS011;36795;45.028;38.968;2023-04-15T15:49:25;21.65;;;6.00;;
49384;SDS011;36795;45.028;38.968;2023-04-15T15:52:11;21.42;;;6.78;;
49384;SDS011;36795;45.028;38.968;2023-04-15T15:54:58;20.08;;;6.70;;
49384;SDS011;36795;45.028;38.968;2023-04-15T15:57:44;22.23;;;6.40;;
49384;SDS011;36795;45.028;38.968;2023-04-15T16:00:30;21.42;;;6.30;;
49384;SDS011;36795;45.028;38.968;2023-04-15T16:03:17;20.88;;;6.57;;
49384;SDS011;36795;45.028;38.968;2023-04-15T16:06:03;23.52;;;7.20;;
49384;SDS011;36795;45.028;38.968;2023-04-15T16:08:49;22.98;;;6.32;;
49384;SDS011;36795;45.028;38.968;2023-04-15T16:11:35;22.37;;;7.03;;
49384;SDS011;36795;45.028;38.968;2023-04-15T16:14:22;23.20;;;6.43;;
49384;SDS011;36795;45.028;38.968;2023-04-15T16:17:09;23.08;;;6.87;;
49384;SDS011;36795;45.028;38.968;2023-04-15T16:19:55;21.65;;;6.85;;
49384;SDS011;36795;45.028;38.968;2023-04-15T16:22:42;20.92;;;5.80;;
49384;SDS011;36795;45.028;38.968;2023-04-15T16:25:29;19.95;;;5.82;;
49384;SDS011;36795;45.028;38.968;2023-04-15T16:28:15;23.15;;;6.03;;